AirNav   Pilot Hours Calculator
 
 463 users online  

II48 Channel 13 Heliport
Indianapolis, Indiana, USA

GOING TO INDIANAPOLIS?


FAA INFORMATION EFFECTIVE 26 JANUARY 2023

Location

FAA Identifier: II48
Lat/Long: 39-46-55.3100N 086-09-31.4000W
39-46.921833N 086-09.523333W
39.7820306,-86.1587222
(estimated)
Elevation: 715 ft. / 218 m (estimated)
Variation: 02W (1985)
From city: 1 mile N of INDIANAPOLIS, IN
Time zone: UTC -5 (UTC -4 during Daylight Saving Time)
Zip code: 46204

Heliport Operations

Heliport use: Private use. Permission required prior to landing
Activation date: 04/1982
Control tower: no
ARTCC: INDIANAPOLIS CENTER
FSS: TERRE HAUTE FLIGHT SERVICE STATION
Attendance: UNATNDD
Wind indicator: yes
Segmented circle: no

Heliport Communications

WX AWOS-3 at 8A4 (1.1 nm SE): 135.525 (317-955-3160)
WX ASOS at EYE (7 nm NW): 121.575 (317-329-1754)
WX ASOS at IND (7 nm SW): PHONE 317-241-0348
WX AWOS-3P at HFY (10 nm S): 118.525 (317-882-5862)
WX AWOS-3 at UMP (11 nm NE): 119.375 (317-842-3911)
WX AWOS-3 at MQJ (13 nm E): 124.175 (317-335-3037)
WX AWOS-3P at 2R2 (15 nm W): 118.025 (317-718-4872)
WX AWOS-3PT at TYQ (16 nm N): 120.725 (317-769-3154)

Nearby radio navigation aids

VOR radial/distance  VOR name  Freq  Var
VHPr101/9.8BRICKYARD VORTAC116.3001E
SHBr299/17.9SHELBYVILLE VOR/DME116.1501E

 
NDB name  Hdg/Dist  Freq  Var  ID
METROPOLITAN211/10.633803WUMP ..- -- .--.
CRAWFORDSVILLE113/36.838804WCFJ -.-. ..-. .---
NEW CASTLE267/39.138506WUWL ..- .-- .-..

Heliport Services

Runway Information

Helipad H1

Dimensions: 35 x 35 ft. / 11 x 11 m
Surface: concrete
Latitude: 39-46.921833N
Longitude: 086-09.523333W
Elevation: 715.0 ft.
Traffic pattern: leftleft

Heliport Ownership and Management from official FAA records

Ownership: Privately-owned
Owner: VIDEO INDIANA, INC.
1000 N MERIDIAN ST
INDIANAPOLIS, IN 46204
Phone (317) 655-5660
Manager: MICHAEL BROUDER
1000 N MERIDIAN ST
INDIANAPOLIS, IN 46204
Phone (317) 655-5660
317-432-4439

Additional Remarks

FOR CD CTC INDIANAPOLIS APCH AT 317-227-5743.

Instrument Procedures

There are no published instrument procedures at II48.

Some nearby airports with instrument procedures:

8A4 - Indianapolis Downtown Heliport (1 nm SE)
KEYE - Eagle Creek Airpark (7 nm NW)
KIND - Indianapolis International Airport (7 nm SW)
KHFY - Indy South Greenwood Airport (10 nm S)
KUMP - Indianapolis Metro Airport (11 nm NE)
KMQJ - Indianapolis Regional Airport (13 nm E)
2R2 - Hendricks County Airport-Gordon Graham Field (15 nm W)
KTYQ - Indianapolis Executive Airport (16 nm N)
 
Loc | Ops | Rwys | IFR | FBO | Links
Com | Nav | Svcs | Stats | Notes
Area around II48 (Channel 13 Heliport)
 
Road maps at: MapQuest Bing Google
 
Aerial photo
No photo
 
Sectional chart

 
Airport distance calculator
Flying to Channel 13 Heliport? Find the distance to fly.

From to II48

Sunrise and sunset
Times for 05-Feb-2023
 Local
(UTC-5)
 Zulu
(UTC)
Morning civil twilight07:2212:22
Sunrise07:5012:50
Sunset18:0823:08
Evening civil twilight18:3623:36

Current date and time
Zulu (UTC)  05-Feb-2023 07:58:54
Local (UTC-5)  05-Feb-2023 02:58:54
 
METAR
KIND 
7nm SW 
050754Z 22014G22KT 10SM SCT250 04/M05 A3006 RMK AO2 SLP182 T00391050
KEYE 
7nm NW 
050753Z AUTO 20013G23KT 10SM CLR 04/M04 A3004 RMK AO2 SLP178 T00441044 $
KHFY 
10nm S 
050755Z AUTO 21007KT 10SM CLR 04/M03 A3009 RMK AO2 T00391031
KUMP 
11nm NE 
050735Z AUTO 21008KT 10SM CLR 05/M03 A3007 RMK AO2 T00461033
KMQJ 
13nm E 
050755Z AUTO 19008KT 10SM CLR 02/M04 A3007 RMK AO1
KTYQ 
16nm N 
050735Z AUTO 21016KT 10SM CLR 04/M04 A3005 RMK AO2 T00351045
TAF
KIND 
7nm SW 
050520Z 0506/0612 20016G27KT P6SM BKN210 WS020/23050KT FM051700 23015G23KT P6SM OVC020 FM052000 24014KT P6SM BKN020 FM052300 25011KT P6SM BKN070 FM060700 34006KT P6SM BKN020
NOTAMs
Click for the latest NOTAMs
NOTAMs are issued by the DoD/FAA and will open in a separate window not controlled by AirNav.

 

 
 

Would you like to see your business listed on this page?

 If your business provides an interesting product or service to pilots, flight crews, aircraft, or users of the Channel 13 Heliport, you should consider listing it here.  To start the listing process, click on the button below
 
Add a business
 

Other Pages about Channel 13 Heliport

Update a link
 
Copyright © AirNav, LLC. All rights reserved. Privacy Policy  Contact